createdAt,value
2016-11-22T00:00:35.578Z,23.1
2016-11-22T00:05:40.351Z,23.1
2016-11-22T00:10:44.449Z,23.1
2016-11-22T00:15:48.875Z,23.1
2016-11-22T00:20:53.299Z,23
2016-11-22T00:25:57.728Z,23
2016-11-22T00:31:01.823Z,23
2016-11-22T00:36:06.251Z,23
2016-11-22T00:41:10.344Z,23
2016-11-22T00:46:14.787Z,23
2016-11-22T00:51:18.886Z,23
2016-11-22T00:56:22.976Z,23
2016-11-22T01:01:27.065Z,23
2016-11-22T01:06:31.831Z,22.9
2016-11-22T01:11:35.923Z,22.9
2016-11-22T01:16:40.684Z,22.9
2016-11-22T01:21:44.789Z,22.9
2016-11-22T01:26:48.884Z,22.9
2016-11-22T01:31:53.313Z,22.9
2016-11-22T01:36:57.401Z,22.9
2016-11-22T01:42:01.492Z,22.9
2016-11-22T01:47:05.585Z,22.9
2016-11-22T01:52:09.675Z,23
2016-11-22T01:57:14.098Z,23
2016-11-22T02:02:18.530Z,23
2016-11-22T02:07:22.958Z,23
2016-11-22T02:12:27.055Z,23.1
2016-11-22T02:17:31.483Z,23.1
2016-11-22T02:22:35.606Z,23.1
2016-11-22T02:27:40.406Z,23.1
2016-11-22T02:32:45.172Z,23.1
2016-11-22T02:37:49.608Z,23.1
2016-11-22T02:42:53.715Z,23.1
2016-11-22T02:47:57.811Z,23.1
2016-11-22T02:53:02.244Z,23.1
2016-11-22T02:58:06.677Z,23.1
2016-11-22T03:03:10.774Z,23.1
2016-11-22T03:08:14.860Z,23.1
2016-11-22T03:13:19.162Z,23
2016-11-22T03:18:23.255Z,23.1
2016-11-22T03:23:27.345Z,23.1
2016-11-22T03:28:31.444Z,23.1
2016-11-22T03:33:35.876Z,23.1
2016-11-22T03:38:40.308Z,23.1
2016-11-22T03:43:44.403Z,23.1
2016-11-22T03:48:48.509Z,23.1
2016-11-22T03:53:52.603Z,23.1
2016-11-22T03:58:56.701Z,23
2016-11-22T04:04:01.129Z,23
2016-11-22T04:09:05.556Z,23
2016-11-22T04:14:10.312Z,23
2016-11-22T04:19:14.738Z,23
2016-11-22T04:24:19.171Z,23
2016-11-22T04:29:23.258Z,23
2016-11-22T04:34:27.364Z,23
2016-11-22T04:39:31.792Z,22.9
2016-11-22T04:44:36.219Z,23
2016-11-22T04:49:40.646Z,23
2016-11-22T04:54:44.743Z,23
2016-11-22T04:59:48.836Z,23
2016-11-22T05:04:53.271Z,23
2016-11-22T05:09:57.374Z,23
2016-11-22T05:15:01.804Z,23
2016-11-22T05:20:06.233Z,23
2016-11-22T05:25:10.681Z,23
2016-11-22T05:30:14.772Z,23
2016-11-22T05:35:19.543Z,23
2016-11-22T05:40:23.636Z,23
2016-11-22T05:45:27.723Z,23
2016-11-22T05:50:32.149Z,23
2016-11-22T05:55:36.242Z,23
2016-11-22T06:00:40.666Z,23.1
2016-11-22T06:05:44.751Z,23.1
2016-11-22T06:10:49.177Z,23.1
2016-11-22T06:15:53.288Z,23.1
2016-11-22T06:20:58.099Z,23.2
2016-11-22T06:26:02.604Z,23.2
2016-11-22T06:31:06.691Z,23.2
2016-11-22T06:36:11.240Z,23.3
2016-11-22T06:41:15.333Z,23.3
2016-11-22T06:46:20.093Z,23.3
2016-11-22T06:51:24.521Z,23.3
2016-11-22T06:56:28.617Z,23.3
2016-11-22T07:01:33.046Z,23.3
2016-11-22T07:06:37.148Z,23.4
2016-11-22T07:11:41.241Z,23.4
2016-11-22T07:16:46.011Z,23.4
2016-11-22T07:21:50.445Z,23.4
2016-11-22T07:26:54.551Z,23.4
2016-11-22T07:31:58.975Z,23.4
2016-11-22T07:37:03.413Z,23.4
2016-11-22T07:42:07.508Z,23.4
2016-11-22T07:47:11.608Z,23.4
2016-11-22T07:52:16.049Z,23.4
2016-11-22T07:57:20.145Z,23.4
2016-11-22T08:02:24.586Z,23.4
2016-11-22T08:07:28.686Z,23.4
2016-11-22T08:12:32.791Z,23.4
2016-11-22T08:17:37.557Z,23.5
2016-11-22T08:22:42.003Z,23.5
2016-11-22T08:27:46.090Z,23.5
2016-11-22T08:32:51.192Z,23.5
2016-11-22T08:37:55.285Z,23.5
2016-11-22T08:42:59.382Z,23.5
2016-11-22T08:48:04.150Z,23.5
2016-11-22T08:53:08.250Z,23.4
2016-11-22T08:58:12.348Z,23.4
2016-11-22T09:03:16.443Z,23.4
2016-11-22T09:08:20.871Z,23.4
2016-11-22T09:13:24.967Z,23.4
2016-11-22T09:18:29.395Z,23.4
2016-11-22T09:23:33.762Z,23.4
2016-11-22T09:28:38.323Z,23.3
2016-11-22T09:33:42.751Z,23.3
2016-11-22T09:38:47.184Z,23.3
2016-11-22T09:43:51.283Z,23.3
2016-11-22T09:48:55.378Z,23.3
2016-11-22T09:53:59.472Z,23.3
2016-11-22T09:59:03.903Z,23.2
2016-11-22T10:04:07.999Z,23.2
2016-11-22T10:09:12.431Z,23.2
2016-11-22T10:14:16.859Z,23.1
2016-11-22T10:19:20.950Z,23.1
2016-11-22T10:24:25.046Z,23.1
2016-11-22T10:29:29.142Z,23
2016-11-22T10:34:33.579Z,23
2016-11-22T10:39:38.340Z,23
2016-11-22T10:44:42.743Z,23.1
2016-11-22T10:49:46.842Z,23.1
2016-11-22T10:54:51.266Z,23.1
2016-11-22T10:59:55.692Z,23.2
2016-11-22T11:04:59.787Z,23.2
2016-11-22T11:10:04.209Z,23.2
2016-11-22T11:15:09.320Z,23.2
2016-11-22T11:20:14.084Z,23.3
2016-11-22T11:25:18.514Z,23.4
2016-11-22T11:30:23.096Z,23.4
2016-11-22T11:35:27.186Z,23.4
2016-11-22T11:40:31.945Z,23.4
2016-11-22T11:45:36.712Z,23.4
2016-11-22T11:50:41.155Z,23.4
2016-11-22T11:55:45.249Z,23.4
2016-11-22T12:00:49.679Z,23.4
2016-11-22T12:05:53.779Z,23.4
2016-11-22T12:10:57.873Z,23.5
2016-11-22T12:16:02.636Z,23.5
2016-11-22T12:21:07.057Z,23.5
2016-11-22T12:26:11.818Z,23.5
2016-11-22T12:31:15.909Z,23.5
2016-11-22T12:36:20.337Z,23.5
2016-11-22T12:41:25.112Z,23.5
2016-11-22T12:46:29.205Z,23.5
2016-11-22T12:51:33.965Z,23.5
2016-11-22T12:56:38.072Z,23.5
2016-11-22T13:01:42.175Z,23.5
2016-11-22T13:06:46.308Z,23.5
2016-11-22T13:11:50.409Z,23.5
2016-11-22T13:16:54.842Z,23.5
2016-11-22T13:21:58.938Z,23.6
2016-11-22T13:27:03.202Z,23.5
2016-11-22T13:32:07.667Z,23.6
2016-11-22T13:37:11.773Z,23.6
2016-11-22T13:42:16.208Z,23.6
2016-11-22T13:47:20.315Z,23.5
2016-11-22T13:52:24.731Z,23.5
2016-11-22T13:57:28.864Z,23.5
2016-11-22T14:02:33.294Z,23.5
2016-11-22T14:07:37.420Z,23.5
2016-11-22T14:12:41.840Z,23.5
2016-11-22T14:17:46.278Z,23.5
2016-11-22T14:22:50.378Z,23.5
2016-11-22T14:27:54.484Z,23.5
2016-11-22T14:32:58.808Z,23.5
2016-11-22T14:38:03.568Z,23.5
2016-11-22T14:43:07.662Z,23.5
2016-11-22T14:48:12.097Z,23.5
2016-11-22T14:53:16.190Z,23.4
2016-11-22T14:58:20.619Z,23.5
2016-11-22T15:03:25.048Z,23.4
2016-11-22T15:08:29.533Z,23.4
2016-11-22T15:13:33.978Z,23.4
2016-11-22T15:18:38.155Z,23.4
2016-11-22T15:23:42.261Z,23.4
2016-11-22T15:28:46.690Z,23.4
2016-11-22T15:33:50.889Z,23.4
2016-11-22T15:38:54.985Z,23.4
2016-11-22T15:43:59.105Z,23.4
2016-11-22T15:49:03.581Z,23.4
2016-11-22T15:54:07.685Z,23.4
2016-11-22T15:59:11.785Z,23.4
2016-11-22T16:04:16.211Z,23.4
2016-11-22T16:09:20.311Z,23.4
2016-11-22T16:14:24.403Z,23.3
2016-11-22T16:19:28.515Z,23.3
2016-11-22T16:24:32.974Z,23.3
2016-11-22T16:29:37.394Z,23.3
2016-11-22T16:34:41.829Z,23.3
2016-11-22T16:39:45.925Z,23.3
2016-11-22T16:44:50.016Z,23.3
2016-11-22T16:49:54.780Z,23.3
2016-11-22T16:54:58.870Z,23.2
2016-11-22T17:00:02.968Z,23.2
2016-11-22T17:05:07.119Z,23.2
2016-11-22T17:10:11.674Z,23.1
2016-11-22T17:15:15.748Z,23.1
2016-11-22T17:20:20.527Z,23.1
2016-11-22T17:25:24.632Z,23.1
2016-11-22T17:30:29.073Z,23.1
2016-11-22T17:35:33.188Z,23.1
2016-11-22T17:40:37.288Z,23.1
2016-11-22T17:45:41.388Z,23.1
2016-11-22T17:50:45.483Z,23.1
2016-11-22T17:55:49.574Z,23
2016-11-22T18:00:53.661Z,23
2016-11-22T18:05:58.086Z,23
2016-11-22T18:11:02.172Z,23.1
2016-11-22T18:16:06.299Z,23.1
2016-11-22T18:21:10.722Z,23
2016-11-22T18:26:14.828Z,23
2016-11-22T18:31:19.274Z,23
2016-11-22T18:36:23.362Z,23
2016-11-22T18:41:27.455Z,23
2016-11-22T18:46:31.882Z,23
2016-11-22T18:51:35.969Z,23
2016-11-22T18:56:40.398Z,23
2016-11-22T19:01:44.491Z,23
2016-11-22T19:06:48.582Z,23
2016-11-22T19:11:53.679Z,23
2016-11-22T19:16:57.770Z,23
2016-11-22T19:22:01.865Z,22.9
2016-11-22T19:27:06.169Z,23
2016-11-22T19:32:10.594Z,23
2016-11-22T19:37:14.690Z,23
2016-11-22T19:42:19.117Z,22.9
2016-11-22T19:47:23.208Z,22.9
2016-11-22T19:52:27.316Z,22.9
2016-11-22T19:57:31.429Z,22.9
2016-11-22T20:02:35.522Z,22.9
2016-11-22T20:07:39.945Z,22.9
2016-11-22T20:12:44.398Z,22.9
2016-11-22T20:17:48.821Z,23
2016-11-22T20:22:53.267Z,23
2016-11-22T20:27:57.695Z,23.1
2016-11-22T20:33:02.153Z,23.1
2016-11-22T20:38:18.149Z,23.1
2016-11-22T20:43:22.266Z,23.1
2016-11-22T20:48:26.352Z,23.1
2016-11-22T20:53:30.814Z,23.1
2016-11-22T20:58:35.265Z,23.1
2016-11-22T21:03:39.950Z,23.1
2016-11-22T21:08:44.439Z,23.1
2016-11-22T21:13:48.879Z,23.1
2016-11-22T21:18:52.969Z,23.1
2016-11-22T21:23:57.066Z,23.1
2016-11-22T21:29:01.174Z,23.1
2016-11-22T21:34:05.280Z,23.1
2016-11-22T21:39:10.060Z,23
2016-11-22T21:44:14.146Z,23
2016-11-22T21:49:18.257Z,23.1
2016-11-22T21:54:22.372Z,23.1
2016-11-22T21:59:26.464Z,23
2016-11-22T22:04:30.570Z,23.1
2016-11-22T22:09:34.863Z,23.1
2016-11-22T22:14:38.957Z,23.1
2016-11-22T22:19:43.718Z,23.1
2016-11-22T22:24:47.824Z,23
2016-11-22T22:29:52.253Z,23
2016-11-22T22:34:56.683Z,23
2016-11-22T22:40:00.790Z,23
2016-11-22T22:45:04.877Z,23
2016-11-22T22:50:09.306Z,23
2016-11-22T22:55:13.408Z,23
2016-11-22T23:00:17.498Z,23
2016-11-22T23:05:21.594Z,23
2016-11-22T23:10:26.084Z,23
2016-11-22T23:15:30.516Z,23
2016-11-22T23:20:34.938Z,23
2016-11-22T23:25:39.405Z,23
2016-11-22T23:30:44.209Z,23
2016-11-22T23:35:48.292Z,23
2016-11-22T23:40:52.383Z,23
2016-11-22T23:45:56.476Z,23
2016-11-22T23:51:00.567Z,23
2016-11-22T23:56:04.990Z,23
